Time;durP1;ratioP1;P1;durP2;ratioP2;P2;SDS_P1;SDS_P2;PMS_P1;PMS_P2;Temp;Humidity;BMP_temperature;BMP_pressure;BME280_temperature;BME280_humidity;BME280_pressure;Samples;Min_cycle;Max_cycle;Signal;HPM_P1;HPM_P2
2024/03/27 00:01:28;;;;;;;;;;;;;;;8.94;72.49;93865.03;4170256;28;19928;-65
2024/03/27 00:03:28;;;;;;;;;;;;;;;8.98;73.14;93875.97;4168299;28;19960;-65
2024/03/27 00:05:29;;;;;;;;;;;;;;;9.02;72.49;93872.84;4172834;28;19931;-67
2024/03/27 00:07:29;;;;;;;;;;;;;;;9.04;72.90;93870.06;4172725;28;19935;-66
2024/03/27 00:09:30;;;;;;;;;;;;;;;9.07;72.81;93869.72;4169079;28;20008;-66
2024/03/27 00:11:30;;;;;;;;;;;;;;;9.05;71.82;93857.81;4175777;28;20483;-66
2024/03/27 00:13:31;;;;;;;;;;;;;;;9.01;72.35;93862.56;4157618;28;19964;-66
2024/03/27 00:15:32;;;;;;;;;;;;;;;9.00;71.74;93868.78;4173063;28;19925;-65
2024/03/27 00:17:32;;;;;;;;;;;;;;;8.97;72.54;93869.94;4165893;28;20007;-68
2024/03/27 00:19:33;;;;;;;;;;;;;;;9.00;72.51;93868.78;4170291;28;19944;-66
2024/03/27 00:21:34;;;;;;;;;;;;;;;8.94;72.54;93862.41;4177609;28;20366;-66
2024/03/27 00:23:35;;;;;;;;;;;;;;;8.98;73.14;93871.56;4170111;28;19920;-66
2024/03/27 00:25:35;;;;;;;;;;;;;;;9.00;72.60;93866.97;4170621;28;19975;-65
2024/03/27 00:27:36;;;;;;;;;;;;;;;9.02;72.99;93862.41;4165274;28;20524;-69
2024/03/27 00:29:37;;;;;;;;;;;;;;;9.00;72.53;93861.75;4170631;28;20390;-67
2024/03/27 00:31:37;;;;;;;;;;;;;;;9.04;71.83;93853.59;4175403;28;19928;-66
2024/03/27 00:33:38;;;;;;;;;;;;;;;8.90;72.11;93857.72;4166312;28;19970;-66
2024/03/27 00:35:38;;;;;;;;;;;;;;;8.86;72.27;93869.47;4147976;28;19921;-64
2024/03/27 00:37:39;;;;;;;;;;;;;;;8.83;72.84;93849.75;4153815;28;19924;-67
2024/03/27 00:39:40;;;;;;;;;;;;;;;8.85;72.61;93867.88;4167421;28;19921;-66
2024/03/27 00:41:41;;;;;;;;;;;;;;;8.85;73.06;93871.28;4170815;28;19970;-66
2024/03/27 00:43:42;;;;;;;;;;;;;;;8.87;72.53;93868.50;4169471;28;20523;-66
2024/03/27 00:45:42;;;;;;;;;;;;;;;8.82;72.71;93866.41;4152990;28;19956;-66
2024/03/27 00:47:44;;;;;;;;;;;;;;;8.84;72.91;93864.44;4171681;28;19970;-65
2024/03/27 00:49:45;;;;;;;;;;;;;;;8.85;73.93;93860.03;4171592;28;19921;-65
2024/03/27 00:51:46;;;;;;;;;;;;;;;8.85;73.12;93854.81;4173433;28;19932;-66
2024/03/27 00:53:46;;;;;;;;;;;;;;;8.85;73.49;93855.59;4156073;28;19944;-66
2024/03/27 00:55:54;;;;;;;;;;;;;;;8.91;73.06;93860.16;4169479;28;19921;-67
2024/03/27 00:57:55;;;;;;;;;;;;;;;8.92;73.27;93859.16;4171322;28;19928;-66
2024/03/27 00:59:58;;;;;;;;;;;;;;;8.92;73.65;93847.91;4170129;28;20006;-66
2024/03/27 01:02:01;;;;;;;;;;;;;;;8.95;73.91;93848.41;4166193;28;20324;-66
2024/03/27 01:04:01;;;;;;;;;;;;;;;8.97;73.37;93849.03;4171869;28;19921;-67
2024/03/27 01:06:03;;;;;;;;;;;;;;;8.95;73.35;93851.00;4176131;28;20066;-66
2024/03/27 01:08:03;;;;;;;;;;;;;;;8.92;73.46;93848.72;4168685;28;20474;-65
2024/03/27 01:10:05;;;;;;;;;;;;;;;8.91;73.63;93843.69;4167769;28;19920;-66
2024/03/27 01:12:07;;;;;;;;;;;;;;;8.90;74.06;93842.03;4154261;28;19951;-67
2024/03/27 01:14:07;;;;;;;;;;;;;;;8.88;74.20;93846.63;4171833;28;19920;-66
2024/03/27 01:16:08;;;;;;;;;;;;;;;8.87;74.60;93855.44;4169704;28;19921;-65
2024/03/27 01:18:08;;;;;;;;;;;;;;;8.85;74.68;93846.97;4164152;28;19924;-65
2024/03/27 01:20:09;;;;;;;;;;;;;;;8.85;74.45;93844.34;4168423;28;19963;-66
2024/03/27 01:22:10;;;;;;;;;;;;;;;8.85;73.71;93845.16;4173671;28;20291;-65
2024/03/27 01:24:11;;;;;;;;;;;;;;;8.84;74.39;93847.94;4170726;28;19925;-65
2024/03/27 01:26:11;;;;;;;;;;;;;;;8.80;74.22;93847.47;4168830;28;19932;-66
2024/03/27 01:28:12;;;;;;;;;;;;;;;8.81;74.44;93855.13;4169079;28;20446;-66
2024/03/27 01:30:13;;;;;;;;;;;;;;;8.82;74.02;93851.53;4158855;28;19968;-66
2024/03/27 01:32:13;;;;;;;;;;;;;;;8.85;74.35;93845.16;4172936;28;19921;-66
2024/03/27 01:34:14;;;;;;;;;;;;;;;8.89;74.32;93843.84;4174726;28;20382;-67
2024/03/27 01:36:14;;;;;;;;;;;;;;;8.91;74.81;93841.88;4162441;28;20015;-67
2024/03/27 01:38:15;;;;;;;;;;;;;;;8.92;74.96;93838.28;4149082;28;20380;-65
2024/03/27 01:40:15;;;;;;;;;;;;;;;8.92;75.19;93832.25;4171242;28;20532;-65
2024/03/27 01:42:16;;;;;;;;;;;;;;;8.91;74.33;93828.81;4161109;28;20013;-65
2024/03/27 01:44:17;;;;;;;;;;;;;;;8.87;74.68;93827.53;4170520;28;20012;-66
2024/03/27 01:46:20;;;;;;;;;;;;;;;8.92;74.79;93827.81;4171575;28;19928;-65
2024/03/27 01:48:20;;;;;;;;;;;;;;;8.89;74.75;93819.53;4167365;28;20360;-67
2024/03/27 01:50:28;;;;;;;;;;;;;;;8.90;74.76;93821.94;4154649;28;19921;-66
2024/03/27 01:52:28;;;;;;;;;;;;;;;8.88;74.31;93823.91;4151354;28;20399;-64
2024/03/27 01:54:29;;;;;;;;;;;;;;;8.86;74.77;93819.84;4161047;28;19932;-65
2024/03/27 01:56:32;;;;;;;;;;;;;;;8.87;74.87;93824.91;4150115;28;19951;-66
2024/03/27 01:58:33;;;;;;;;;;;;;;;8.83;74.84;93815.78;4169576;28;20300;-66
2024/03/27 02:00:34;;;;;;;;;;;;;;;8.83;74.92;93815.78;4164680;28;20008;-66
2024/03/27 02:02:37;;;;;;;;;;;;;;;8.89;75.45;93828.16;4168303;28;20308;-65
2024/03/27 02:04:38;;;;;;;;;;;;;;;8.91;75.21;93823.59;4169880;28;19943;-66
2024/03/27 02:06:39;;;;;;;;;;;;;;;8.88;74.87;93802.22;4168893;28;19921;-66
2024/03/27 02:08:40;;;;;;;;;;;;;;;8.84;74.67;93800.94;4160483;28;19925;-66
2024/03/27 02:10:40;;;;;;;;;;;;;;;8.81;75.55;93800.28;4168429;28;20386;-64
2024/03/27 02:12:41;;;;;;;;;;;;;;;8.87;75.38;93808.44;4170255;28;20447;-67
2024/03/27 02:14:42;;;;;;;;;;;;;;;8.89;75.07;93807.28;4172569;28;19921;-67
2024/03/27 02:16:42;;;;;;;;;;;;;;;8.91;75.03;93818.38;4168962;28;20004;-66
2024/03/27 02:18:43;;;;;;;;;;;;;;;8.88;75.29;93812.66;4163734;28;19921;-67
2024/03/27 02:20:43;;;;;;;;;;;;;;;8.91;75.62;93810.53;4164205;28;20022;-67
2024/03/27 02:22:44;;;;;;;;;;;;;;;8.91;75.29;93813.16;4149219;28;20388;-65
2024/03/27 02:24:45;;;;;;;;;;;;;;;8.94;75.63;93817.22;4176370;28;20271;-67
2024/03/27 02:26:46;;;;;;;;;;;;;;;8.95;75.89;93816.25;4160012;28;19921;-67
2024/03/27 02:28:48;;;;;;;;;;;;;;;8.96;75.80;93800.38;4156076;28;19959;-67
2024/03/27 02:30:48;;;;;;;;;;;;;;;8.96;75.85;93804.78;4172051;28;19924;-65
2024/03/27 02:32:49;;;;;;;;;;;;;;;8.97;74.90;93806.41;4171269;28;19925;-66
2024/03/27 02:34:49;;;;;;;;;;;;;;;8.97;75.70;93798.56;4167011;28;20062;-65
2024/03/27 02:36:50;;;;;;;;;;;;;;;8.94;74.97;93799.72;4172257;28;19925;-66
2024/03/27 02:38:51;;;;;;;;;;;;;;;8.92;75.27;93796.47;4166355;28;19921;-66
2024/03/27 02:40:53;;;;;;;;;;;;;;;8.87;75.07;93796.19;4171321;28;19959;-67
2024/03/27 02:42:53;;;;;;;;;;;;;;;8.80;75.30;93801.28;4173302;28;19928;-66
2024/03/27 02:44:54;;;;;;;;;;;;;;;8.83;75.81;93802.72;4174223;28;19921;-66
2024/03/27 02:46:54;;;;;;;;;;;;;;;8.87;75.62;93808.44;4175951;28;20062;-65
2024/03/27 02:48:55;;;;;;;;;;;;;;;8.89;75.41;93809.09;4173347;28;19921;-66
2024/03/27 02:50:56;;;;;;;;;;;;;;;8.78;75.08;93807.66;4175059;28;20007;-65
2024/03/27 02:52:57;;;;;;;;;;;;;;;8.74;75.57;93801.97;4177256;28;20315;-66
2024/03/27 02:54:58;;;;;;;;;;;;;;;8.74;76.21;93808.97;4170360;28;19920;-66
2024/03/27 02:56:59;;;;;;;;;;;;;;;8.74;75.96;93807.19;4165662;28;19929;-65
2024/03/27 02:58:59;;;;;;;;;;;;;;;8.77;75.65;93806.03;4170557;28;19925;-65
2024/03/27 03:01:00;;;;;;;;;;;;;;;8.85;76.28;93807.78;4165123;28;20030;-64
2024/03/27 03:03:01;;;;;;;;;;;;;;;8.86;76.21;93806.78;4167719;28;19920;-66
2024/03/27 03:05:01;;;;;;;;;;;;;;;8.83;75.74;93807.94;4153237;28;20075;-67
2024/03/27 03:07:02;;;;;;;;;;;;;;;8.84;76.36;93800.94;4174787;28;19974;-65
2024/03/27 03:09:30;;;;;;;;;;;;;;;8.85;75.96;93803.38;4174859;28;20009;-66
2024/03/27 03:11:31;;;;;;;;;;;;;;;8.80;75.24;93810.91;4167640;28;20379;-67
2024/03/27 03:13:31;;;;;;;;;;;;;;;8.84;75.43;93804.38;4172021;28;19925;-66
2024/03/27 03:15:32;;;;;;;;;;;;;;;8.85;75.97;93800.75;4174668;28;20071;-67
2024/03/27 03:17:33;;;;;;;;;;;;;;;8.83;75.51;93800.13;4168163;28;19920;-67
2024/03/27 03:19:36;;;;;;;;;;;;;;;8.87;75.29;93798.78;4170737;28;20379;-67
2024/03/27 03:21:36;;;;;;;;;;;;;;;8.89;75.59;93807.28;4169603;28;19922;-66
2024/03/27 03:23:37;;;;;;;;;;;;;;;8.89;75.41;93807.28;4163211;28;20012;-65
2024/03/27 03:25:38;;;;;;;;;;;;;;;8.84;75.38;93808.75;4167589;28;20237;-69
2024/03/27 03:27:38;;;;;;;;;;;;;;;8.80;75.22;93808.31;4167020;28;19939;-67
2024/03/27 03:29:39;;;;;;;;;;;;;;;8.80;75.11;93808.31;4170053;28;20016;-66
2024/03/27 03:31:39;;;;;;;;;;;;;;;8.79;75.56;93804.84;4177844;28;19924;-67
2024/03/27 03:33:40;;;;;;;;;;;;;;;8.84;75.98;93806.16;4177308;28;19927;-66
2024/03/27 03:35:41;;;;;;;;;;;;;;;8.85;76.01;93811.22;4155697;28;19921;-66
2024/03/27 03:37:41;;;;;;;;;;;;;;;8.87;75.57;93809.25;4169411;28;19994;-64
2024/03/27 03:39:42;;;;;;;;;;;;;;;8.84;75.29;93806.16;4166691;28;20391;-64
2024/03/27 03:41:42;;;;;;;;;;;;;;;8.86;75.15;93802.38;4168062;28;19928;-66
2024/03/27 03:43:47;;;;;;;;;;;;;;;8.84;75.41;93812.22;4173213;28;20383;-67
2024/03/27 03:45:48;;;;;;;;;;;;;;;8.84;75.54;93807.00;4174998;28;19924;-66
2024/03/27 03:47:49;;;;;;;;;;;;;;;8.88;75.88;93813.47;4173783;28;19924;-66
2024/03/27 03:49:49;;;;;;;;;;;;;;;8.86;75.66;93805.00;4163470;28;20008;-67
2024/03/27 03:51:50;;;;;;;;;;;;;;;8.90;76.07;93805.47;4169939;28;20030;-67
2024/03/27 03:53:50;;;;;;;;;;;;;;;8.90;76.10;93805.47;4167457;28;19999;-64
2024/03/27 03:55:51;;;;;;;;;;;;;;;8.77;75.66;93813.84;4171365;28;20438;-66
2024/03/27 03:57:52;;;;;;;;;;;;;;;8.67;75.38;93818.44;4166990;28;19998;-67
2024/03/27 03:59:52;;;;;;;;;;;;;;;8.63;76.07;93814.56;4174469;28;20063;-65
2024/03/27 04:01:53;;;;;;;;;;;;;;;8.59;76.54;93812.28;4173851;28;19921;-66
2024/03/27 04:03:53;;;;;;;;;;;;;;;8.68;76.98;93796.59;4165561;28;19928;-65
2024/03/27 04:05:54;;;;;;;;;;;;;;;8.67;76.28;93800.19;4158770;28;20028;-67
2024/03/27 04:07:54;;;;;;;;;;;;;;;8.68;76.05;93810.47;4173334;28;19924;-65
2024/03/27 04:09:56;;;;;;;;;;;;;;;8.71;76.25;93801.47;4174513;28;19928;-67
2024/03/27 04:11:57;;;;;;;;;;;;;;;8.72;75.70;93803.91;4171795;28;19925;-65
2024/03/27 04:13:58;;;;;;;;;;;;;;;8.74;77.06;93808.97;4172736;28;20319;-67
2024/03/27 04:16:00;;;;;;;;;;;;;;;8.74;76.30;93812.41;4173955;28;19921;-67
2024/03/27 04:18:01;;;;;;;;;;;;;;;8.77;76.45;93808.63;4174343;28;19920;-65
2024/03/27 04:20:03;;;;;;;;;;;;;;;8.80;75.93;93805.69;4162802;28;20285;-66
2024/03/27 04:22:04;;;;;;;;;;;;;;;8.73;74.92;93787.28;4163760;28;20323;-66
2024/03/27 04:24:04;;;;;;;;;;;;;;;8.55;75.30;93811.00;4162396;28;20010;-66
2024/03/27 04:26:05;;;;;;;;;;;;;;;8.39;75.96;93798.78;4165884;28;19976;-65
2024/03/27 04:28:06;;;;;;;;;;;;;;;8.37;76.60;93810.38;4172163;28;19921;-66
2024/03/27 04:30:07;;;;;;;;;;;;;;;8.31;76.43;93805.81;4172238;28;20400;-66
2024/03/27 04:32:08;;;;;;;;;;;;;;;8.36;77.52;93813.97;4166850;28;19921;-65
2024/03/27 04:34:09;;;;;;;;;;;;;;;8.41;76.65;93806.50;4167121;28;19971;-66
2024/03/27 04:36:10;;;;;;;;;;;;;;;8.41;77.02;93816.94;4172971;28;19928;-65
2024/03/27 04:38:11;;;;;;;;;;;;;;;8.44;76.71;93824.41;4153136;28;20391;-66
2024/03/27 04:40:12;;;;;;;;;;;;;;;8.40;76.33;93813.47;4175513;28;19921;-68
2024/03/27 04:42:14;;;;;;;;;;;;;;;8.42;76.69;93818.53;4176796;28;20387;-66
2024/03/27 04:44:14;;;;;;;;;;;;;;;8.47;76.70;93816.22;4177171;28;19924;-69
2024/03/27 04:46:15;;;;;;;;;;;;;;;8.50;76.53;93810.69;4173142;28;19975;-67
2024/03/27 04:48:15;;;;;;;;;;;;;;;8.43;76.28;93822.75;4173646;28;20654;-65
2024/03/27 04:50:16;;;;;;;;;;;;;;;8.46;76.77;93819.84;4176769;28;20401;-66
2024/03/27 04:52:17;;;;;;;;;;;;;;;8.44;76.11;93808.75;4174807;28;20050;-69
2024/03/27 04:54:17;;;;;;;;;;;;;;;8.45;76.13;93815.59;4170459;28;19924;-67
2024/03/27 04:56:18;;;;;;;;;;;;;;;8.49;76.25;93814.28;4168869;28;19983;-69
2024/03/27 04:58:18;;;;;;;;;;;;;;;8.50;75.48;93822.94;4166609;28;20186;-65
2024/03/27 05:00:19;;;;;;;;;;;;;;;8.51;75.68;93814.91;4169281;28;20352;-68
2024/03/27 05:02:19;;;;;;;;;;;;;;;8.57;76.02;93819.47;4167212;28;19929;-66
2024/03/27 05:04:20;;;;;;;;;;;;;;;8.66;76.20;93816.84;4167253;28;19925;-67
2024/03/27 05:06:21;;;;;;;;;;;;;;;8.69;75.64;93814.72;4168414;28;20359;-67
2024/03/27 05:08:21;;;;;;;;;;;;;;;8.69;74.89;93824.31;4174666;28;19925;-70
2024/03/27 05:10:22;;;;;;;;;;;;;;;8.72;74.94;93835.25;4166950;28;19920;-66
2024/03/27 05:12:24;;;;;;;;;;;;;;;8.66;74.94;93835.13;4166472;28;19987;-68
2024/03/27 05:14:24;;;;;;;;;;;;;;;8.65;75.71;93823.88;4168095;28;20287;-68
2024/03/27 05:16:25;;;;;;;;;;;;;;;8.64;75.56;93829.25;4167087;28;19921;-67
2024/03/27 05:18:25;;;;;;;;;;;;;;;8.67;75.67;93818.44;4173011;28;19920;-68
2024/03/27 05:20:27;;;;;;;;;;;;;;;8.68;74.82;93805.25;4172764;28;19925;-66
2024/03/27 05:22:31;;;;;;;;;;;;;;;8.69;74.29;93814.72;4173553;28;19929;-70
2024/03/27 05:24:31;;;;;;;;;;;;;;;8.70;74.80;93808.50;4175424;28;19925;-68
2024/03/27 05:26:32;;;;;;;;;;;;;;;8.75;74.33;93814.00;4170218;28;19924;-67
2024/03/27 05:28:33;;;;;;;;;;;;;;;8.82;73.74;93820.22;4169182;28;20391;-68
2024/03/27 05:30:35;;;;;;;;;;;;;;;8.80;73.48;93811.72;4170829;28;19928;-69
2024/03/27 05:32:35;;;;;;;;;;;;;;;8.80;73.79;93810.91;4166111;28;20369;-67
2024/03/27 05:34:36;;;;;;;;;;;;;;;8.88;73.66;93812.66;4171074;28;20069;-68
2024/03/27 05:36:37;;;;;;;;;;;;;;;8.89;73.75;93812.50;4173796;28;19963;-69
2024/03/27 05:38:37;;;;;;;;;;;;;;;8.93;74.39;93808.56;4168547;28;19939;-70
2024/03/27 05:40:38;;;;;;;;;;;;;;;9.05;74.16;93816.00;4168354;28;20021;-68
2024/03/27 05:42:39;;;;;;;;;;;;;;;9.17;73.79;93815.47;4176774;28;20393;-69
2024/03/27 05:44:39;;;;;;;;;;;;;;;9.20;73.33;93822.94;4159920;28;19956;-68
2024/03/27 05:46:41;;;;;;;;;;;;;;;9.24;73.34;93831.25;4177254;28;19925;-68
2024/03/27 05:48:42;;;;;;;;;;;;;;;9.21;73.52;93821.16;4173575;28;19947;-67
2024/03/27 05:50:43;;;;;;;;;;;;;;;9.22;74.20;93820.97;4176621;28;19972;-68
2024/03/27 05:52:44;;;;;;;;;;;;;;;9.28;73.99;93829.13;4172821;28;19921;-68
2024/03/27 05:54:45;;;;;;;;;;;;;;;9.34;73.98;93829.25;4176665;28;20062;-68
2024/03/27 05:56:46;;;;;;;;;;;;;;;9.30;73.06;93822.72;4175925;28;20396;-67
2024/03/27 05:58:47;;;;;;;;;;;;;;;9.33;73.62;93825.00;4174213;28;19990;-67
2024/03/27 06:00:48;;;;;;;;;;;;;;;9.41;73.29;93821.53;4165981;28;19920;-68
2024/03/27 06:02:48;;;;;;;;;;;;;;;9.45;73.58;93833.25;4177159;28;19920;-69
2024/03/27 06:04:50;;;;;;;;;;;;;;;9.54;73.11;93824.38;4171211;28;20016;-66
2024/03/27 06:06:51;;;;;;;;;;;;;;;9.64;72.82;93826.78;4175691;28;19935;-68
2024/03/27 06:08:53;;;;;;;;;;;;;;;9.71;72.65;93830.31;4176519;28;20682;-66
2024/03/27 06:10:54;;;;;;;;;;;;;;;9.77;72.52;93829.59;4155560;28;19925;-70
2024/03/27 06:12:54;;;;;;;;;;;;;;;9.86;72.62;93832.16;4172267;28;19920;-68
2024/03/27 06:14:55;;;;;;;;;;;;;;;9.89;72.74;93837.03;4174698;28;19921;-70
2024/03/27 06:16:55;;;;;;;;;;;;;;;9.98;72.42;93822.88;4168778;28;20439;-69
2024/03/27 06:18:56;;;;;;;;;;;;;;;10.03;71.57;93825.81;4175058;28;19929;-66
2024/03/27 06:20:57;;;;;;;;;;;;;;;10.12;71.42;93826.53;4175408;28;19974;-68
2024/03/27 06:22:57;;;;;;;;;;;;;;;9.81;70.23;93825.66;4172429;28;20385;-67
2024/03/27 06:24:58;;;;;;;;;;;;;;;9.79;71.03;93822.41;4173451;28;19928;-67
2024/03/27 06:26:59;;;;;;;;;;;;;;;9.77;71.77;93824.38;4170273;28;19921;-69
2024/03/27 06:29:00;;;;;;;;;;;;;;;9.67;70.53;93833.44;4176640;28;20372;-70
2024/03/27 06:31:01;;;;;;;;;;;;;;;9.66;71.33;93826.56;4168624;28;19924;-69
2024/03/27 06:33:01;;;;;;;;;;;;;;;9.67;71.01;93829.03;4165971;28;19969;-70
2024/03/27 06:35:03;;;;;;;;;;;;;;;9.75;71.54;93825.56;4172217;28;19928;-69
2024/03/27 06:37:04;;;;;;;;;;;;;;;9.36;69.75;93821.25;4173198;28;20257;-68
2024/03/27 06:39:12;;;;;;;;;;;;;;;9.32;71.10;93828.59;4169284;28;19947;-70
2024/03/27 06:41:14;;;;;;;;;;;;;;;9.49;71.34;93824.09;4170167;28;19929;-69
2024/03/27 06:43:14;;;;;;;;;;;;;;;9.70;71.48;93828.69;4169823;28;19921;-67
2024/03/27 06:45:15;;;;;;;;;;;;;;;9.76;69.68;93827.97;4175667;28;19969;-69
2024/03/27 06:47:26;;;;;;;;;;;;;;;9.74;68.93;93829.13;4167439;28;19952;-67
2024/03/27 06:49:33;;;;;;;;;;;;;;;9.74;69.67;93835.16;4170455;28;20350;-69
2024/03/27 06:51:33;;;;;;;;;;;;;;;9.89;70.49;93847.50;4171182;28;20354;-67
2024/03/27 06:53:34;;;;;;;;;;;;;;;10.01;70.27;93846.09;4173388;28;19920;-69
2024/03/27 06:55:36;;;;;;;;;;;;;;;9.76;68.36;93848.09;4175363;28;20378;-68
2024/03/27 06:57:36;;;;;;;;;;;;;;;9.54;69.97;93857.56;4175296;28;19990;-70
2024/03/27 06:59:37;;;;;;;;;;;;;;;9.61;70.05;93843.63;4179011;28;19950;-69
2024/03/27 07:01:38;;;;;;;;;;;;;;;9.72;70.05;93842.41;4178985;28;19975;-67
2024/03/27 07:03:38;;;;;;;;;;;;;;;9.87;69.84;93844.25;4171242;28;19964;-70
2024/03/27 07:05:39;;;;;;;;;;;;;;;9.96;69.24;93856.25;4168159;28;19928;-71
2024/03/27 07:07:40;;;;;;;;;;;;;;;10.13;68.82;93857.78;4174880;28;19983;-67
2024/03/27 07:09:40;;;;;;;;;;;;;;;10.11;68.29;93857.16;4166408;28;19925;-68
2024/03/27 07:11:41;;;;;;;;;;;;;;;10.15;68.53;93857.59;4163408;28;19920;-69
2024/03/27 07:13:42;;;;;;;;;;;;;;;10.32;68.93;93853.84;4171064;28;20330;-67
2024/03/27 07:15:42;;;;;;;;;;;;;;;10.44;67.92;93851.63;4170060;28;20035;-68
2024/03/27 07:17:45;;;;;;;;;;;;;;;10.57;67.28;93841.34;4168050;28;19959;-70
2024/03/27 07:19:48;;;;;;;;;;;;;;;10.70;67.08;93845.16;4172957;28;19929;-69
2024/03/27 07:21:49;;;;;;;;;;;;;;;10.87;66.90;93843.97;4165336;28;19924;-68
2024/03/27 07:23:49;;;;;;;;;;;;;;;11.01;65.96;93840.53;4175509;28;20284;-69
2024/03/27 07:25:50;;;;;;;;;;;;;;;11.02;65.57;93842.16;4171709;28;19929;-69
2024/03/27 07:27:51;;;;;;;;;;;;;;;11.00;65.59;93838.91;4168107;28;20012;-69
2024/03/27 07:29:51;;;;;;;;;;;;;;;10.92;64.89;93841.59;4174210;28;19929;-69
2024/03/27 07:31:52;;;;;;;;;;;;;;;10.71;66.36;93846.75;4173813;28;19951;-70
2024/03/27 07:33:53;;;;;;;;;;;;;;;10.89;66.61;93841.19;4168870;28;19921;-69
2024/03/27 07:35:54;;;;;;;;;;;;;;;11.04;65.00;93845.41;4175824;28;19927;-69
2024/03/27 07:37:54;;;;;;;;;;;;;;;10.57;65.54;93841.34;4165369;28;19971;-70
2024/03/27 07:39:55;;;;;;;;;;;;;;;10.49;66.79;93841.41;4177395;28;20219;-70
2024/03/27 07:41:55;;;;;;;;;;;;;;;10.44;67.59;93838.53;4175486;28;20260;-70
2024/03/27 07:43:56;;;;;;;;;;;;;;;10.63;67.50;93835.38;4167407;28;20394;-67
2024/03/27 07:45:57;;;;;;;;;;;;;;;10.93;66.95;93835.38;4168896;28;19924;-68
2024/03/27 07:47:57;;;;;;;;;;;;;;;11.20;66.47;93830.47;4173626;28;19928;-70
2024/03/27 07:49:58;;;;;;;;;;;;;;;11.28;65.62;93825.91;4177270;28;20383;-71
2024/03/27 07:51:58;;;;;;;;;;;;;;;11.40;65.05;93825.44;4169999;28;20380;-69
2024/03/27 07:53:59;;;;;;;;;;;;;;;11.31;63.68;93823.91;4164413;28;20423;-67
2024/03/27 07:56:05;;;;;;;;;;;;;;;11.33;64.15;93816.69;4174224;28;19928;-69
2024/03/27 07:58:07;;;;;;;;;;;;;;;11.53;63.90;93814.25;4172835;28;19928;-69
2024/03/27 08:00:11;;;;;;;;;;;;;;;11.61;63.04;93819.41;4178783;28;19925;-70
2024/03/27 08:02:12;;;;;;;;;;;;;;;11.75;63.94;93818.53;4174316;28;19921;-72
2024/03/27 08:04:13;;;;;;;;;;;;;;;11.87;63.80;93817.03;4162532;28;20407;-68
2024/03/27 08:06:14;;;;;;;;;;;;;;;12.06;62.54;93820.84;4163862;28;19924;-68
2024/03/27 08:08:14;;;;;;;;;;;;;;;12.06;61.84;93825.28;4176678;28;20043;-67
2024/03/27 08:10:15;;;;;;;;;;;;;;;11.91;61.61;93820.09;4172637;28;19955;-68
2024/03/27 08:12:16;;;;;;;;;;;;;;;11.50;62.32;93822.50;4165570;28;19960;-69
2024/03/27 08:14:17;;;;;;;;;;;;;;;11.47;62.93;93824.50;4164236;28;19933;-70
2024/03/27 08:16:18;;;;;;;;;;;;;;;11.62;63.19;93818.41;4175906;28;20008;-69
2024/03/27 08:18:19;;;;;;;;;;;;;;;11.80;62.47;93808.28;4174488;28;19924;-68
2024/03/27 08:20:20;;;;;;;;;;;;;;;12.02;61.75;93819.63;4174367;28;20003;-69
2024/03/27 08:22:20;;;;;;;;;;;;;;;12.26;60.95;93818.41;4174323;28;19929;-69
2024/03/27 08:24:21;;;;;;;;;;;;;;;12.12;60.22;93807.97;4167000;28;20609;-67
2024/03/27 08:26:23;;;;;;;;;;;;;;;12.01;61.25;93811.94;4155219;28;19925;-69
2024/03/27 08:28:23;;;;;;;;;;;;;;;11.69;62.21;93820.09;4189667;28;20378;-69
2024/03/27 08:30:24;;;;;;;;;;;;;;;11.64;62.78;93806.72;4170572;28;19921;-70
2024/03/27 08:32:25;;;;;;;;;;;;;;;11.78;62.81;93822.59;4175694;28;19920;-68
2024/03/27 08:34:25;;;;;;;;;;;;;;;12.08;62.84;93821.47;4154401;28;20401;-68
2024/03/27 08:36:26;;;;;;;;;;;;;;;12.39;62.16;93814.22;4176803;28;19996;-67
2024/03/27 08:38:27;;;;;;;;;;;;;;;12.65;61.19;93814.41;4167573;28;20150;-68
2024/03/27 08:40:28;;;;;;;;;;;;;;;12.89;60.69;93817.56;4169500;28;19955;-69
2024/03/27 08:42:28;;;;;;;;;;;;;;;13.14;60.20;93812.59;4172681;28;19928;-68
2024/03/27 08:44:29;;;;;;;;;;;;;;;12.86;59.87;93810.06;4167405;28;19929;-66
2024/03/27 08:46:32;;;;;;;;;;;;;;;12.69;60.10;93805.13;4169522;28;19965;-67
2024/03/27 08:48:33;;;;;;;;;;;;;;;12.34;60.56;93806.13;4171052;28;19921;-70
2024/03/27 08:50:33;;;;;;;;;;;;;;;12.12;61.88;93805.34;4173517;28;20390;-68
2024/03/27 08:52:34;;;;;;;;;;;;;;;12.17;62.18;93803.75;4169536;28;19952;-68
2024/03/27 08:54:36;;;;;;;;;;;;;;;12.03;62.25;93804.69;4169940;28;19921;-69
2024/03/27 08:56:37;;;;;;;;;;;;;;;12.01;62.45;93809.31;4171274;28;19975;-70
2024/03/27 08:58:37;;;;;;;;;;;;;;;12.06;62.73;93809.53;4171674;28;19921;-69
2024/03/27 09:00:38;;;;;;;;;;;;;;;12.09;61.75;93804.72;4173335;28;20411;-68
2024/03/27 09:02:39;;;;;;;;;;;;;;;12.07;62.47;93805.94;4164080;28;20002;-68
2024/03/27 09:04:39;;;;;;;;;;;;;;;12.16;62.11;93799.53;4172037;28;20507;-69
2024/03/27 09:06:40;;;;;;;;;;;;;;;12.15;61.82;93802.34;4176612;28;19924;-69
2024/03/27 09:08:40;;;;;;;;;;;;;;;12.23;62.01;93803.00;4173361;28;19971;-70
2024/03/27 09:10:41;;;;;;;;;;;;;;;12.25;62.27;93811.50;4174916;28;19940;-69
2024/03/27 09:12:41;;;;;;;;;;;;;;;12.30;62.42;93813.56;4171977;28;20360;-69
2024/03/27 09:14:42;;;;;;;;;;;;;;;12.46;62.56;93804.59;4174466;28;20346;-70
2024/03/27 09:16:43;;;;;;;;;;;;;;;12.56;61.87;93812.94;4162263;28;19955;-68
2024/03/27 09:18:43;;;;;;;;;;;;;;;12.71;61.51;93804.91;4164805;28;19991;-70
2024/03/27 09:20:50;;;;;;;;;;;;;;;12.90;60.99;93806.84;4151672;28;19924;-68
2024/03/27 09:22:52;;;;;;;;;;;;;;;12.99;60.25;93809.31;4170868;28;19929;-69
2024/03/27 09:24:56;;;;;;;;;;;;;;;13.13;59.89;93808.38;4176540;28;19936;-71
2024/03/27 09:26:57;;;;;;;;;;;;;;;13.31;59.54;93813.94;4167121;28;19928;-69
2024/03/27 09:28:57;;;;;;;;;;;;;;;13.45;58.60;93808.72;4162978;28;19964;-70
2024/03/27 09:31:03;;;;;;;;;;;;;;;13.46;58.70;93805.06;4168547;28;19925;-68
2024/03/27 09:33:04;;;;;;;;;;;;;;;13.67;58.63;93798.84;4167107;28;20660;-69
2024/03/27 09:35:05;;;;;;;;;;;;;;;13.71;57.78;93797.44;4168255;28;19925;-69
2024/03/27 09:37:05;;;;;;;;;;;;;;;13.84;57.58;93802.72;4165045;28;19921;-68
2024/03/27 09:39:07;;;;;;;;;;;;;;;13.58;57.91;93810.56;4163863;28;19963;-69
2024/03/27 09:41:09;;;;;;;;;;;;;;;13.42;58.59;93809.91;4163541;28;19921;-70
2024/03/27 09:43:11;;;;;;;;;;;;;;;13.14;58.93;93806.53;4164692;28;19928;-69
2024/03/27 09:45:11;;;;;;;;;;;;;;;12.77;59.56;93801.50;4163063;28;19921;-69
2024/03/27 09:47:12;;;;;;;;;;;;;;;12.67;60.72;93794.00;4159792;28;19928;-68
2024/03/27 09:49:13;;;;;;;;;;;;;;;12.44;61.44;93793.47;4152863;28;19925;-67
2024/03/27 09:51:14;;;;;;;;;;;;;;;12.76;61.35;93799.91;4154365;28;20300;-71
2024/03/27 09:53:15;;;;;;;;;;;;;;;13.22;60.88;93799.28;4155189;28;19921;-71
2024/03/27 09:55:15;;;;;;;;;;;;;;;13.61;59.66;93797.81;4167507;28;19959;-69
2024/03/27 09:57:17;;;;;;;;;;;;;;;13.85;58.14;93788.53;4149189;28;19925;-69
2024/03/27 09:59:17;;;;;;;;;;;;;;;13.59;57.91;93781.41;4173623;28;19925;-69
2024/03/27 10:01:18;;;;;;;;;;;;;;;13.51;59.11;93787.69;4171910;28;19920;-69
2024/03/27 10:03:21;;;;;;;;;;;;;;;13.61;58.65;93789.09;4171706;28;19925;-71
2024/03/27 10:05:24;;;;;;;;;;;;;;;13.62;58.34;93794.19;4164150;28;19933;-70
2024/03/27 10:07:26;;;;;;;;;;;;;;;13.76;58.61;93786.28;4173045;28;20283;-67
2024/03/27 10:09:27;;;;;;;;;;;;;;;13.98;59.04;93782.47;4172992;28;20280;-69
2024/03/27 10:11:27;;;;;;;;;;;;;;;14.01;58.04;93778.63;4169266;28;20086;-69
2024/03/27 10:13:28;;;;;;;;;;;;;;;14.21;57.81;93773.34;4175110;28;19921;-71
2024/03/27 10:15:29;;;;;;;;;;;;;;;14.23;57.77;93780.03;4174227;28;19964;-71
2024/03/27 10:17:30;;;;;;;;;;;;;;;14.52;57.30;93770.88;4172733;28;19927;-69
2024/03/27 10:19:30;;;;;;;;;;;;;;;14.38;56.47;93757.94;4169119;28;19925;-69
2024/03/27 10:21:31;;;;;;;;;;;;;;;14.42;57.42;93756.50;4172678;28;20007;-70
2024/03/27 10:23:32;;;;;;;;;;;;;;;14.63;57.29;93769.47;4173053;28;19921;-69
2024/03/27 10:25:32;;;;;;;;;;;;;;;14.67;56.65;93762.75;4175980;28;19921;-69
2024/03/27 10:27:34;;;;;;;;;;;;;;;14.59;56.70;93762.19;4167031;28;19963;-69
2024/03/27 10:29:34;;;;;;;;;;;;;;;14.40;56.98;93763.81;4179579;28;19921;-69
2024/03/27 10:31:36;;;;;;;;;;;;;;;14.53;57.59;93763.78;4170497;28;19924;-68
2024/03/27 10:33:36;;;;;;;;;;;;;;;14.82;56.94;93756.41;4171982;28;20395;-69
2024/03/27 10:35:37;;;;;;;;;;;;;;;15.14;56.10;93760.78;4177312;28;19951;-70